Time;durP1;ratioP1;P1;durP2;ratioP2;P2;SDS_P1;SDS_P2;PMS_P1;PMS_P2;Temp;Humidity;BMP_temperature;BMP_pressure;BME280_temperature;BME280_humidity;BME280_pressure;Samples;Min_cycle;Max_cycle;Signal;HPM_P1;HPM_P2
2023/03/19 00:06:27;;;;;;;9.02;3.85;;;;;;;10.29;100.00;99966.00;20796925;28;20468;-69
2023/03/19 00:16:28;;;;;;;13.38;6.22;;;;;;;10.23;100.00;99984.44;20795528;28;20049;-68
2023/03/19 00:26:30;;;;;;;15.35;7.13;;;;;;;10.00;100.00;100009.31;20793559;28;20068;-68
2023/03/19 00:36:31;;;;;;;11.32;6.03;;;;;;;9.82;100.00;100009.69;20791733;28;20081;-68
2023/03/19 00:46:32;;;;;;;10.25;4.90;;;;;;;9.49;100.00;100001.56;20807788;28;20080;-69
2023/03/19 00:56:34;;;;;;;11.63;4.30;;;;;;;9.20;100.00;100033.41;20808865;28;20061;-68
2023/03/19 01:06:35;;;;;;;10.70;4.90;;;;;;;9.28;100.00;100027.19;20807071;28;20136;-69
2023/03/19 01:16:36;;;;;;;11.88;5.80;;;;;;;9.22;100.00;100025.53;20807852;28;20448;-69
2023/03/19 01:26:38;;;;;;;10.68;5.22;;;;;;;9.20;100.00;100037.78;20806451;28;20080;-68
2023/03/19 01:36:39;;;;;;;12.48;5.30;;;;;;;9.14;100.00;100051.75;20806272;28;20088;-68
2023/03/19 01:46:40;;;;;;;11.23;4.85;;;;;;;9.07;100.00;100063.19;20805314;28;20115;-69
2023/03/19 01:56:42;;;;;;;11.27;4.80;;;;;;;9.15;100.00;100057.84;20802652;28;20058;-71
2023/03/19 02:06:43;;;;;;;8.88;4.72;;;;;;;9.24;100.00;100048.13;20803512;28;20049;-69
2023/03/19 02:16:44;;;;;;;9.90;4.40;;;;;;;9.30;100.00;100048.94;20802283;28;20061;-69
2023/03/19 02:26:46;;;;;;;10.48;4.85;;;;;;;9.29;100.00;100045.44;20801518;28;20199;-69
2023/03/19 02:36:47;;;;;;;10.93;5.03;;;;;;;9.23;100.00;100050.75;20800423;28;20057;-68
2023/03/19 02:46:48;;;;;;;12.98;5.22;;;;;;;9.25;100.00;100062.06;20799903;28;20198;-69
2023/03/19 02:56:51;;;;;;;11.13;6.10;;;;;;;9.21;100.00;100066.47;20800017;28;20445;-69
2023/03/19 03:06:52;;;;;;;13.73;6.10;;;;;;;9.27;100.00;100078.56;20798020;28;20080;-68
2023/03/19 03:16:54;;;;;;;12.10;6.32;;;;;;;9.34;100.00;100075.00;20797435;28;20053;-69
2023/03/19 03:26:55;;;;;;;12.35;5.55;;;;;;;9.40;100.00;100074.88;20796549;28;20057;-69
2023/03/19 03:36:56;;;;;;;11.32;5.70;;;;;;;9.39;100.00;100083.63;20796185;28;20091;-69
2023/03/19 03:46:57;;;;;;;10.05;5.80;;;;;;;9.35;100.00;100081.06;20819255;23;20568;-81
2023/03/19 03:57:00;;;;;;;15.52;6.50;;;;;;;9.30;100.00;100088.97;20824831;28;20049;-81
2023/03/19 04:07:03;;;;;;;11.25;5.13;;;;;;;9.30;100.00;100103.78;20820704;28;20045;-81
2023/03/19 04:17:05;;;;;;;10.77;5.28;;;;;;;9.34;100.00;100103.72;20815677;28;20513;-81
2023/03/19 04:27:06;;;;;;;10.88;5.20;;;;;;;9.40;100.00;100103.63;20810456;28;20105;-81
2023/03/19 04:37:09;;;;;;;10.48;5.80;;;;;;;9.44;100.00;100100.06;20795367;28;20394;-81
2023/03/19 04:47:10;;;;;;;8.95;5.45;;;;;;;9.46;100.00;100103.53;20803607;28;20771;-81
2023/03/19 04:57:14;;;;;;;11.55;5.90;;;;;;;9.46;100.00;100103.53;20804112;28;20045;-81
2023/03/19 05:07:15;;;;;;;13.38;5.75;;;;;;;9.47;100.00;100107.84;20808265;28;20049;-80
2023/03/19 05:17:20;;;;;;;9.85;4.43;;;;;;;9.48;100.00;100117.41;20809374;28;20108;-80
2023/03/19 05:27:21;;;;;;;8.65;4.93;;;;;;;9.51;100.00;100127.81;20811991;28;20057;-80
2023/03/19 05:37:25;;;;;;;7.97;4.32;;;;;;;9.60;100.00;100125.97;20817905;28;20069;-80
2023/03/19 05:47:26;;;;;;;7.72;4.10;;;;;;;9.68;100.00;100121.47;20816516;28;20647;-81
2023/03/19 05:57:31;;;;;;;9.32;4.15;;;;;;;9.75;100.00;100123.09;20821097;28;20060;-81
2023/03/19 06:07:32;;;;;;;9.13;3.83;;;;;;;9.80;100.00;100136.09;20813888;28;20041;-80
2023/03/19 06:17:33;;;;;;;8.80;3.88;;;;;;;9.90;100.00;100135.91;20817517;28;20046;-81
2023/03/19 06:27:34;;;;;;;8.63;4.25;;;;;;;9.98;100.00;100141.88;20818612;28;20041;-81
2023/03/19 06:37:36;;;;;;;9.85;4.05;;;;;;;10.13;100.00;100150.34;20810800;28;20450;-82
2023/03/19 06:47:37;;;;;;;8.40;4.10;;;;;;;10.26;100.00;100157.13;20807912;28;20129;-79
2023/03/19 06:57:39;;;;;;;7.93;4.30;;;;;;;10.34;100.00;100163.03;20813279;28;20049;-82
2023/03/19 07:07:40;;;;;;;9.30;4.05;;;;;;;10.40;100.00;100180.41;20815704;28;20042;-81
2023/03/19 07:17:43;;;;;;;7.47;4.20;;;;;;;10.53;100.00;100189.75;20818499;28;20045;-81
2023/03/19 07:27:45;;;;;;;8.65;4.47;;;;;;;10.76;100.00;100186.69;20825266;28;20057;-81
2023/03/19 07:37:46;;;;;;;11.30;4.97;;;;;;;11.08;100.00;100190.41;20821816;28;20041;-81
2023/03/19 07:47:47;;;;;;;9.35;4.57;;;;;;;11.28;100.00;100194.31;20813923;28;20058;-80
2023/03/19 07:57:50;;;;;;;12.32;6.07;;;;;;;11.51;100.00;100198.19;20798298;28;20056;-80
2023/03/19 08:07:51;;;;;;;7.47;4.20;;;;;;;11.86;100.00;100193.91;20795273;28;20045;-80
2023/03/19 08:17:53;;;;;;;8.27;4.38;;;;;;;12.43;100.00;100195.97;20806080;28;20107;-79
2023/03/19 08:27:55;;;;;;;6.88;3.17;;;;;;;13.12;100.00;100188.75;20803938;28;20050;-80
2023/03/19 08:37:56;;;;;;;5.38;2.90;;;;;;;13.49;100.00;100197.28;20809919;28;20069;-81
2023/03/19 08:47:57;;;;;;;6.38;2.50;;;;;;;13.74;96.86;100204.41;20822789;28;20115;-82
2023/03/19 08:57:59;;;;;;;4.88;2.22;;;;;;;13.73;93.04;100215.84;20818241;28;20069;-81
2023/03/19 09:08:00;;;;;;;6.50;2.67;;;;;;;14.30;85.58;100209.59;20819848;28;20071;-82
2023/03/19 09:18:01;;;;;;;7.72;2.88;;;;;;;14.95;83.21;100209.09;20837384;28;20050;-79
2023/03/19 09:28:06;;;;;;;8.10;3.00;;;;;;;15.56;76.85;100198.81;20836946;28;20692;-80
2023/03/19 09:38:07;;;;;;;7.22;3.20;;;;;;;16.05;74.06;100203.91;20830850;28;20160;-80
2023/03/19 09:48:08;;;;;;;6.78;2.90;;;;;;;15.95;73.34;100207.88;20832957;28;20057;-79
2023/03/19 09:58:10;;;;;;;6.53;2.80;;;;;;;15.22;73.56;100208.94;20831978;28;20111;-80
2023/03/19 10:08:11;;;;;;;9.52;2.83;;;;;;;14.71;76.57;100215.22;20825580;28;20080;-81
2023/03/19 10:18:12;;;;;;;6.82;3.70;;;;;;;14.98;78.57;100202.81;20835638;28;20049;-80
2023/03/19 10:28:14;;;;;;;8.98;2.90;;;;;;;15.21;73.67;100191.41;20834120;28;20467;-80
2023/03/19 10:38:16;;;;;;;7.20;2.55;;;;;;;15.78;70.46;100192.72;20831357;28;20118;-80
2023/03/19 10:48:17;;;;;;;6.57;2.65;;;;;;;15.96;67.36;100199.91;20838354;28;20069;-79
2023/03/19 10:58:19;;;;;;;5.40;2.28;;;;;;;16.12;63.00;100198.34;20837756;28;20045;-80
2023/03/19 11:08:20;;;;;;;9.65;3.22;;;;;;;16.52;64.26;100191.34;20838791;28;20045;-81
2023/03/19 11:18:36;;;;;;;4.78;2.05;;;;;;;16.28;64.21;100206.47;20835980;28;20110;-80
2023/03/19 11:28:37;;;;;;;9.10;2.50;;;;;;;16.37;64.56;100200.78;20828608;28;20103;-80
2023/03/19 11:38:38;;;;;;;7.72;2.70;;;;;;;16.40;65.79;100194.53;20823892;28;20045;-80
2023/03/19 11:48:40;;;;;;;7.20;2.88;;;;;;;16.73;64.70;100196.66;20828254;28;20049;-81
2023/03/19 11:58:41;;;;;;;7.57;2.47;;;;;;;16.73;63.21;100186.09;20825498;28;20061;-79
2023/03/19 12:08:42;;;;;;;8.15;2.50;;;;;;;16.15;66.54;100190.28;20820292;28;20603;-79
2023/03/19 12:18:43;;;;;;;5.70;2.20;;;;;;;15.61;69.16;100190.72;20832072;28;20053;-80
2023/03/19 12:28:44;;;;;;;7.13;2.50;;;;;;;15.84;68.69;100197.75;20820120;23;20127;-67
2023/03/19 12:38:47;;;;;;;5.15;2.10;;;;;;;16.13;67.17;100192.13;20800455;28;20553;-69
2023/03/19 12:48:48;;;;;;;5.88;2.22;;;;;;;15.81;72.38;100195.22;20807564;28;20041;-69
2023/03/19 12:58:49;;;;;;;4.40;1.85;;;;;;;15.29;82.68;100195.47;20802558;28;20053;-68
2023/03/19 13:08:51;;;;;;;3.33;1.48;;;;;;;14.68;87.15;100215.34;20806245;28;20049;-68
2023/03/19 13:18:52;;;;;;;5.07;2.08;;;;;;;14.71;84.89;100212.56;20806749;28;20494;-68
2023/03/19 13:28:53;;;;;;;5.45;1.70;;;;;;;14.88;84.46;100207.56;20805122;28;20123;-68
2023/03/19 13:38:54;;;;;;;4.47;1.80;;;;;;;15.08;85.82;100210.31;20803238;28;20095;-70
2023/03/19 13:48:55;;;;;;;4.57;1.60;;;;;;;14.76;92.90;100208.03;20800733;28;20057;-70
2023/03/19 13:58:57;;;;;;;4.55;1.33;;;;;;;15.03;89.19;100196.44;20801994;28;20057;-70
2023/03/19 14:08:59;;;;;;;2.53;0.98;;;;;;;15.49;87.79;100194.72;20797550;28;20096;-70
2023/03/19 14:19:00;;;;;;;3.28;1.30;;;;;;;14.68;96.01;100194.25;20799487;28;20042;-70
2023/03/19 14:29:02;;;;;;;4.47;1.40;;;;;;;14.83;93.47;100191.06;20800315;28;20103;-70
2023/03/19 14:39:03;;;;;;;4.70;1.60;;;;;;;14.95;93.33;100190.63;20793675;28;20127;-70
2023/03/19 14:49:05;;;;;;;3.90;1.40;;;;;;;15.16;92.05;100185.47;20796929;28;20053;-70
2023/03/19 14:59:06;;;;;;;5.10;1.63;;;;;;;15.58;82.78;100167.97;20791500;28;20548;-70
2023/03/19 15:09:07;;;;;;;4.00;1.30;;;;;;;15.58;84.52;100162.69;20790205;28;20050;-70
2023/03/19 15:19:09;;;;;;;3.25;1.20;;;;;;;15.22;83.50;100158.84;20786417;28;20500;-68
2023/03/19 15:29:11;;;;;;;2.72;1.20;;;;;;;15.11;83.65;100168.03;20790126;28;20053;-68
2023/03/19 15:39:13;;;;;;;4.03;1.10;;;;;;;15.12;84.25;100177.66;20792984;28;20053;-68
2023/03/19 15:49:15;;;;;;;3.22;1.05;;;;;;;14.77;87.91;100188.66;20789817;28;20521;-68
2023/03/19 15:59:16;;;;;;;1.95;0.90;;;;;;;14.25;87.61;100190.47;20790497;28;20080;-68
2023/03/19 16:09:17;;;;;;;2.88;0.90;;;;;;;13.91;90.29;100211.78;20787012;28;20077;-67
2023/03/19 16:19:18;;;;;;;2.70;1.05;;;;;;;13.78;92.21;100222.69;20786452;28;20119;-68
2023/03/19 16:29:20;;;;;;;2.30;0.80;;;;;;;13.69;91.89;100227.38;20775824;28;20506;-68
2023/03/19 16:39:21;;;;;;;3.88;1.00;;;;;;;13.53;94.37;100246.28;20786256;28;20498;-68
2023/03/19 16:49:23;;;;;;;4.20;1.30;;;;;;;13.59;96.13;100255.75;20786452;28;20139;-68
2023/03/19 16:59:24;;;;;;;2.42;1.27;;;;;;;13.51;99.94;100281.41;20786786;28;20077;-68
2023/03/19 17:09:26;;;;;;;5.22;1.95;;;;;;;13.64;100.00;100298.56;20777272;28;20053;-67
2023/03/19 17:19:27;;;;;;;7.80;3.40;;;;;;;13.43;100.00;100304.47;20779397;28;20084;-66
2023/03/19 17:29:29;;;;;;;6.43;3.38;;;;;;;13.21;100.00;100305.03;20797530;28;20172;-67
2023/03/19 17:39:31;;;;;;;5.45;3.08;;;;;;;12.79;100.00;100309.69;20793845;28;20049;-67
2023/03/19 17:49:32;;;;;;;9.77;5.20;;;;;;;12.31;100.00;100317.88;20795882;28;20072;-68
2023/03/19 17:59:34;;;;;;;8.93;3.88;;;;;;;11.87;100.00;100327.66;20794322;28;20054;-67
2023/03/19 18:09:35;;;;;;;10.98;6.60;;;;;;;11.50;100.00;100343.31;20785220;28;20658;-67
2023/03/19 18:19:36;;;;;;;4.60;2.58;;;;;;;11.24;100.00;100356.91;20791759;28;20115;-67
2023/03/19 18:29:37;;;;;;;9.18;6.05;;;;;;;11.04;100.00;100373.00;20792454;28;20056;-68
2023/03/19 18:39:39;;;;;;;6.70;3.70;;;;;;;11.02;100.00;100375.66;20793835;28;20088;-67
2023/03/19 18:49:40;;;;;;;8.50;3.95;;;;;;;11.02;100.00;100374.81;20791728;28;20089;-67
2023/03/19 18:59:41;;;;;;;6.80;2.72;;;;;;;10.87;100.00;100378.53;20780323;28;20097;-68
2023/03/19 19:09:42;;;;;;;8.10;5.30;;;;;;;10.67;100.00;100391.09;20788193;28;20053;-68
2023/03/19 19:19:44;;;;;;;7.28;4.20;;;;;;;10.44;100.00;100396.69;20789282;28;20057;-68
2023/03/19 19:29:45;;;;;;;12.73;4.80;;;;;;;10.37;100.00;100410.78;20786076;28;20054;-69
2023/03/19 19:39:46;;;;;;;7.07;2.85;;;;;;;10.14;100.00;100409.31;20785291;28;20473;-67
2023/03/19 19:49:47;;;;;;;11.85;7.65;;;;;;;9.97;100.00;100425.25;20785124;28;20053;-67
2023/03/19 19:59:49;;;;;;;8.07;4.50;;;;;;;9.80;100.00;100435.03;20783542;28;20064;-67
2023/03/19 20:09:50;;;;;;;8.20;2.85;;;;;;;9.69;100.00;100457.84;20786927;28;20972;-67
2023/03/19 20:19:51;;;;;;;5.05;2.20;;;;;;;9.49;100.00;100463.28;20784537;28;20057;-68
2023/03/19 20:29:53;;;;;;;4.75;2.65;;;;;;;9.33;100.00;100469.53;20779869;28;20076;-67
2023/03/19 20:39:54;;;;;;;6.15;3.50;;;;;;;9.16;100.00;100477.53;20780822;28;20054;-68
2023/03/19 20:49:55;;;;;;;6.25;2.83;;;;;;;9.02;100.00;100495.94;20783133;28;20053;-67
2023/03/19 20:59:57;;;;;;;5.30;2.70;;;;;;;8.94;100.00;100516.88;20785794;28;20057;-71
2023/03/19 21:09:58;;;;;;;5.75;2.42;;;;;;;8.91;100.00;100534.28;20795658;28;20061;-70
2023/03/19 21:19:59;;;;;;;5.43;2.33;;;;;;;8.88;100.00;100556.09;20796425;28;20438;-70
2023/03/19 21:30:01;;;;;;;3.78;1.60;;;;;;;8.96;100.00;100558.66;20784962;28;20049;-71
2023/03/19 21:40:02;;;;;;;3.33;1.58;;;;;;;9.06;100.00;100557.72;20782724;28;20511;-69
2023/03/19 21:50:04;;;;;;;4.93;1.60;;;;;;;9.19;100.00;100571.53;20778219;28;20077;-70
2023/03/19 22:00:05;;;;;;;3.65;1.75;;;;;;;9.17;100.00;100575.91;20780931;28;20383;-69
2023/03/19 22:10:07;;;;;;;6.10;2.25;;;;;;;9.25;100.00;100576.72;20781317;28;20459;-69
2023/03/19 22:20:08;;;;;;;3.58;1.70;;;;;;;9.32;100.00;100590.59;20781016;28;20523;-69
2023/03/19 22:30:09;;;;;;;4.60;2.08;;;;;;;9.38;100.00;100591.41;20776648;28;20069;-70
2023/03/19 22:40:11;;;;;;;7.97;3.22;;;;;;;9.43;100.00;100587.00;20773880;28;20057;-73
2023/03/19 22:50:12;;;;;;;5.10;2.00;;;;;;;9.42;100.00;100587.91;20775189;28;20077;-70
2023/03/19 23:00:13;;;;;;;3.72;1.65;;;;;;;9.41;100.00;100585.31;20777912;28;20469;-70
2023/03/19 23:10:15;;;;;;;3.67;1.90;;;;;;;9.39;100.00;100576.59;20772981;28;20498;-70
2023/03/19 23:20:16;;;;;;;4.15;1.65;;;;;;;9.43;100.00;100560.88;20759412;28;20108;-70
2023/03/19 23:30:18;;;;;;;3.92;1.75;;;;;;;9.45;100.00;100566.97;20760600;28;20060;-70
2023/03/19 23:40:19;;;;;;;5.40;2.15;;;;;;;9.39;100.00;100571.38;20770626;28;20069;-69
2023/03/19 23:50:21;;;;;;;4.43;2.05;;;;;;;9.38;100.00;100573.13;20771600;28;20049;-70
